Time;durP1;ratioP1;P1;durP2;ratioP2;P2;SDS_P1;SDS_P2;PMS_P1;PMS_P2;Temp;Humidity;BMP_temperature;BMP_pressure;BME280_temperature;BME280_humidity;BME280_pressure;Samples;Min_cycle;Max_cycle;Signal;HPM_P1;HPM_P2
2023/10/23 00:00:59;;;;;;;6.45;3.80;;;7.50;76.20;;;;;;5088618;28;20406;-71
2023/10/23 00:03:25;;;;;;;5.77;3.40;;;7.50;76.40;;;;;;5090015;28;20398;-71
2023/10/23 00:05:50;;;;;;;4.88;3.60;;;7.50;76.50;;;;;;5086552;28;20420;-71
2023/10/23 00:08:16;;;;;;;10.55;4.30;;;7.50;76.80;;;;;;5080899;28;20414;-71
2023/10/23 00:10:44;;;;;;;6.37;3.90;;;7.40;76.70;;;;;;5089840;28;20402;-71
2023/10/23 00:13:10;;;;;;;5.53;3.83;;;7.50;77.30;;;;;;5081502;28;20417;-71
2023/10/23 00:15:36;;;;;;;6.22;4.10;;;7.40;77.60;;;;;;5088555;28;20438;-71
2023/10/23 00:18:02;;;;;;;7.87;4.47;;;7.40;77.80;;;;;;5088533;28;20764;-71
2023/10/23 00:20:28;;;;;;;6.65;4.10;;;7.40;78.00;;;;;;5087874;28;20414;-71
2023/10/23 00:22:54;;;;;;;7.07;3.90;;;7.40;78.40;;;;;;5089677;28;20406;-71
2023/10/23 00:25:19;;;;;;;7.65;4.32;;;7.40;78.70;;;;;;5088769;28;20406;-71
2023/10/23 00:27:45;;;;;;;9.40;4.60;;;7.40;78.70;;;;;;5089856;28;20394;-71
2023/10/23 00:30:11;;;;;;;8.57;4.72;;;7.40;79.30;;;;;;5089225;28;20911;-71
2023/10/23 00:32:36;;;;;;;7.03;4.32;;;7.40;79.10;;;;;;5089342;28;20895;-71
2023/10/23 00:35:02;;;;;;;6.90;4.33;;;7.40;79.10;;;;;;5088869;28;20503;-71
2023/10/23 00:37:28;;;;;;;8.43;4.35;;;7.40;79.10;;;;;;5089270;28;20410;-71
2023/10/23 00:39:53;;;;;;;7.10;4.50;;;7.40;79.30;;;;;;5089350;28;20405;-71
2023/10/23 00:42:19;;;;;;;6.23;4.20;;;7.30;79.10;;;;;;5089369;28;20409;-71
2023/10/23 00:44:45;;;;;;;6.22;4.65;;;7.30;79.10;;;;;;5089046;28;20749;-71
2023/10/23 00:47:11;;;;;;;7.03;4.40;;;7.30;79.40;;;;;;5088928;28;20487;-71
2023/10/23 00:49:37;;;;;;;7.07;4.50;;;7.30;79.90;;;;;;5087336;28;20417;-71
2023/10/23 00:52:03;;;;;;;8.93;4.88;;;7.30;79.90;;;;;;5087967;28;20409;-71
2023/10/23 00:54:30;;;;;;;9.88;5.10;;;7.30;80.00;;;;;;5087550;28;20421;-71
2023/10/23 00:56:56;;;;;;;7.57;4.93;;;7.30;80.00;;;;;;5088799;28;20443;-71
2023/10/23 00:59:22;;;;;;;7.68;4.85;;;7.30;80.10;;;;;;5088048;28;20481;-71
2023/10/23 01:01:48;;;;;;;8.23;5.00;;;7.30;80.10;;;;;;5087985;28;20485;-71
2023/10/23 01:04:13;;;;;;;7.30;4.82;;;7.30;80.30;;;;;;5088721;28;20404;-71
2023/10/23 01:06:39;;;;;;;6.93;5.50;;;7.30;80.50;;;;;;5087593;28;20763;-71
2023/10/23 01:09:06;;;;;;;8.63;5.47;;;7.20;80.30;;;;;;5088014;28;20430;-71
2023/10/23 01:11:32;;;;;;;8.23;5.40;;;7.30;80.70;;;;;;5088532;28;20488;-71
2023/10/23 01:13:58;;;;;;;7.67;5.43;;;7.20;81.10;;;;;;5087472;28;20412;-71
2023/10/23 01:16:24;;;;;;;12.43;5.57;;;7.20;81.30;;;;;;5088558;28;20951;-71
2023/10/23 01:18:49;;;;;;;10.23;6.00;;;7.20;81.50;;;;;;5087288;28;20407;-71
2023/10/23 01:21:15;;;;;;;9.27;6.20;;;7.20;81.50;;;;;;5086977;28;20489;-71
2023/10/23 01:23:42;;;;;;;9.50;5.30;;;7.20;82.00;;;;;;5088460;28;20760;-71
2023/10/23 01:26:08;;;;;;;9.38;5.57;;;7.30;82.10;;;;;;5088203;28;20459;-71
2023/10/23 01:28:34;;;;;;;8.53;5.50;;;7.30;82.00;;;;;;5087227;28;20440;-71
2023/10/23 01:30:59;;;;;;;10.38;5.97;;;7.20;81.70;;;;;;5088887;28;20436;-71
2023/10/23 01:33:25;;;;;;;8.67;6.10;;;7.20;81.80;;;;;;5088279;28;20481;-71
2023/10/23 01:35:51;;;;;;;10.70;6.40;;;7.20;82.00;;;;;;5087705;28;20437;-71
2023/10/23 01:38:18;;;;;;;8.80;6.30;;;7.20;82.00;;;;;;5087607;28;20421;-71
2023/10/23 01:40:43;;;;;;;8.32;5.95;;;7.10;82.20;;;;;;5087457;28;20410;-71
2023/10/23 01:43:09;;;;;;;10.03;6.70;;;7.20;82.20;;;;;;5086604;28;20410;-71
2023/10/23 01:45:35;;;;;;;8.83;6.03;;;7.10;82.20;;;;;;5087905;28;20406;-71
2023/10/23 01:48:00;;;;;;;8.30;5.38;;;7.10;82.20;;;;;;5087959;28;20904;-71
2023/10/23 01:50:26;;;;;;;10.00;6.40;;;7.10;82.20;;;;;;5086956;28;20462;-71
2023/10/23 01:52:51;;;;;;;9.10;5.85;;;7.00;82.10;;;;;;5087552;28;20533;-71
2023/10/23 01:55:17;;;;;;;8.57;5.60;;;7.00;82.10;;;;;;5086624;28;20472;-71
2023/10/23 01:57:43;;;;;;;9.53;5.83;;;7.00;82.10;;;;;;5087935;28;20813;-71
2023/10/23 02:00:10;;;;;;;8.32;6.28;;;7.00;82.60;;;;;;5086565;28;20741;-71
2023/10/23 02:02:36;;;;;;;9.75;5.72;;;6.90;81.90;;;;;;5087022;28;20390;-71
2023/10/23 02:05:02;;;;;;;9.07;5.70;;;6.90;82.10;;;;;;5087721;28;20405;-71
2023/10/23 02:07:28;;;;;;;9.95;6.75;;;6.90;82.00;;;;;;5076986;28;20402;-71
2023/10/23 02:09:56;;;;;;;8.98;6.32;;;6.90;82.00;;;;;;5087981;28;20907;-71
2023/10/23 02:12:23;;;;;;;9.02;6.18;;;6.90;82.70;;;;;;5082574;28;20939;-71
2023/10/23 02:14:50;;;;;;;10.77;6.27;;;6.90;82.60;;;;;;5087992;28;20428;-71
2023/10/23 02:17:17;;;;;;;13.13;7.60;;;6.90;82.70;;;;;;5087845;28;20501;-71
2023/10/23 02:19:43;;;;;;;11.07;7.63;;;6.80;83.00;;;;;;5087508;28;20951;-71
2023/10/23 02:22:09;;;;;;;10.55;7.20;;;6.90;83.90;;;;;;5088113;28;20421;-71
2023/10/23 02:24:34;;;;;;;10.97;7.23;;;6.90;82.80;;;;;;5091884;28;20757;-71
2023/10/23 02:27:00;;;;;;;10.73;7.05;;;6.80;82.90;;;;;;5091467;28;20416;-71
2023/10/23 02:29:25;;;;;;;10.97;6.47;;;6.80;82.80;;;;;;5091949;28;21089;-71
2023/10/23 02:31:51;;;;;;;10.23;6.85;;;6.80;82.80;;;;;;5091434;28;20401;-71
2023/10/23 02:34:17;;;;;;;9.70;6.75;;;6.70;82.90;;;;;;5091925;28;20545;-71
2023/10/23 02:36:43;;;;;;;11.03;6.90;;;6.70;83.00;;;;;;5091669;28;20899;-71
2023/10/23 02:39:09;;;;;;;12.07;7.03;;;6.70;83.10;;;;;;5091732;28;20413;-71
2023/10/23 02:41:35;;;;;;;12.05;7.55;;;6.70;83.30;;;;;;5091481;28;20414;-71
2023/10/23 02:44:01;;;;;;;9.97;7.07;;;6.70;83.40;;;;;;5091532;28;20399;-71
2023/10/23 02:46:26;;;;;;;11.67;7.17;;;6.70;84.10;;;;;;5090660;28;20409;-71
2023/10/23 02:48:53;;;;;;;11.63;7.75;;;6.70;84.20;;;;;;5082107;28;20394;-71
2023/10/23 02:51:19;;;;;;;12.27;7.40;;;6.70;84.00;;;;;;5091154;28;20455;-71
2023/10/23 02:53:45;;;;;;;12.00;7.33;;;6.70;83.80;;;;;;5091373;28;20402;-71
2023/10/23 02:56:14;;;;;;;10.07;7.53;;;6.70;83.70;;;;;;5090457;28;20430;-71
2023/10/23 02:58:40;;;;;;;11.40;7.32;;;6.60;83.80;;;;;;5082734;28;20496;-71
2023/10/23 03:01:15;;;;;;;11.07;7.68;;;6.60;84.00;;;;;;5090914;28;20516;-71
2023/10/23 03:03:42;;;;;;;12.00;7.53;;;6.60;84.10;;;;;;5091223;28;20756;-71
2023/10/23 03:06:07;;;;;;;9.43;6.90;;;6.60;84.10;;;;;;5090574;28;20888;-71
2023/10/23 03:08:33;;;;;;;13.02;8.18;;;6.60;84.20;;;;;;5090962;28;20447;-71
2023/10/23 03:10:59;;;;;;;9.93;7.53;;;6.60;84.50;;;;;;5090430;28;20448;-71
2023/10/23 03:13:24;;;;;;;15.25;8.27;;;6.60;84.60;;;;;;5090933;28;20406;-71
2023/10/23 03:15:50;;;;;;;9.82;7.68;;;6.50;84.60;;;;;;5089451;28;20418;-71
2023/10/23 03:18:16;;;;;;;10.57;7.60;;;6.50;84.50;;;;;;5090963;28;20433;-71
2023/10/23 03:20:41;;;;;;;13.23;8.60;;;6.50;84.30;;;;;;5089214;28;20418;-71
2023/10/23 03:23:07;;;;;;;12.43;8.80;;;6.50;84.50;;;;;;5090467;28;20464;-71
2023/10/23 03:25:32;;;;;;;14.63;8.80;;;6.50;85.10;;;;;;5090645;28;20548;-71
2023/10/23 03:27:58;;;;;;;15.13;9.43;;;6.50;85.30;;;;;;5090870;28;20402;-71
2023/10/23 03:30:23;;;;;;;17.55;9.60;;;6.50;85.20;;;;;;5090538;28;20406;-71
2023/10/23 03:32:49;;;;;;;13.53;9.07;;;6.50;85.20;;;;;;5090485;28;20500;-71
2023/10/23 03:35:15;;;;;;;12.20;8.90;;;6.50;85.40;;;;;;5090210;28;20511;-71
2023/10/23 03:37:40;;;;;;;12.50;8.55;;;6.50;85.40;;;;;;5089895;28;20481;-71
2023/10/23 03:40:07;;;;;;;13.63;8.10;;;6.50;85.30;;;;;;5089161;28;20406;-71
2023/10/23 03:42:32;;;;;;;13.32;8.77;;;6.40;85.40;;;;;;5088878;28;20924;-71
2023/10/23 03:44:58;;;;;;;14.43;9.50;;;6.50;85.30;;;;;;5090291;28;20438;-71
2023/10/23 03:47:24;;;;;;;12.38;9.00;;;6.40;86.30;;;;;;5089108;28;20406;-71
2023/10/23 03:49:50;;;;;;;11.07;9.17;;;6.40;85.70;;;;;;5090474;28;20398;-71
2023/10/23 03:52:16;;;;;;;15.23;9.82;;;6.40;86.20;;;;;;5089846;28;20406;-71
2023/10/23 03:54:42;;;;;;;13.32;9.48;;;6.40;85.80;;;;;;5087032;28;20468;-71
2023/10/23 03:57:07;;;;;;;16.33;10.70;;;6.40;86.00;;;;;;5089934;28;20430;-71
2023/10/23 03:59:33;;;;;;;13.80;9.60;;;6.40;86.00;;;;;;5088640;28;20410;-71
2023/10/23 04:01:59;;;;;;;13.65;10.48;;;6.40;86.50;;;;;;5089267;28;20398;-71
2023/10/23 04:04:24;;;;;;;16.07;10.80;;;6.40;86.90;;;;;;5089588;28;20410;-71
2023/10/23 04:06:50;;;;;;;14.40;10.17;;;6.40;87.10;;;;;;5090260;28;20899;-71
2023/10/23 04:09:16;;;;;;;14.18;10.55;;;6.40;86.90;;;;;;5088434;28;20398;-71
2023/10/23 04:11:41;;;;;;;13.50;9.53;;;6.40;86.80;;;;;;5089542;28;20401;-71
2023/10/23 04:14:08;;;;;;;13.88;10.43;;;6.40;86.70;;;;;;5089189;28;20398;-71
2023/10/23 04:16:35;;;;;;;14.52;10.48;;;6.30;86.70;;;;;;5088644;28;20398;-71
2023/10/23 04:19:01;;;;;;;14.43;9.40;;;6.40;86.80;;;;;;5089060;28;20402;-71
2023/10/23 04:21:26;;;;;;;13.40;9.90;;;6.30;86.70;;;;;;5089720;28;20405;-71
2023/10/23 04:23:52;;;;;;;14.77;9.52;;;6.30;86.80;;;;;;5088157;28;20879;-71
2023/10/23 04:26:17;;;;;;;15.53;9.53;;;6.30;86.90;;;;;;5089542;28;21594;-71
2023/10/23 04:28:43;;;;;;;12.43;9.07;;;6.30;86.70;;;;;;5071565;28;20402;-71
2023/10/23 04:31:09;;;;;;;12.25;8.75;;;6.20;86.50;;;;;;5089381;28;20904;-71
2023/10/23 04:33:35;;;;;;;15.05;9.15;;;6.20;86.40;;;;;;5087861;28;20410;-71
2023/10/23 04:36:01;;;;;;;12.23;8.55;;;6.20;86.50;;;;;;5087856;28;20430;-71
2023/10/23 04:38:26;;;;;;;11.67;8.40;;;6.20;86.70;;;;;;5088828;28;20398;-71
2023/10/23 04:40:55;;;;;;;10.35;7.70;;;6.20;86.70;;;;;;5089689;28;20451;-71
2023/10/23 04:43:21;;;;;;;11.60;8.38;;;6.10;86.50;;;;;;5085699;28;20410;-71
2023/10/23 04:45:48;;;;;;;11.75;8.07;;;6.10;86.50;;;;;;5088732;28;20776;-71
2023/10/23 04:48:14;;;;;;;10.03;7.73;;;6.10;86.50;;;;;;5087972;28;20406;-71
2023/10/23 04:50:40;;;;;;;10.27;8.67;;;6.10;86.60;;;;;;5089319;28;20409;-71
2023/10/23 04:53:06;;;;;;;13.23;9.07;;;6.10;86.70;;;;;;5088576;28;20394;-71
2023/10/23 04:55:33;;;;;;;12.25;9.00;;;6.10;86.80;;;;;;5089328;28;20434;-71
2023/10/23 04:57:59;;;;;;;12.77;9.07;;;6.10;86.70;;;;;;5087582;28;21000;-71
2023/10/23 05:00:25;;;;;;;12.73;9.20;;;6.00;86.70;;;;;;5087716;28;20494;-71
2023/10/23 05:02:50;;;;;;;12.53;8.90;;;6.00;86.70;;;;;;5086913;28;20492;-71
2023/10/23 05:05:16;;;;;;;12.95;9.27;;;6.00;86.70;;;;;;5088223;28;20412;-70
2023/10/23 05:07:42;;;;;;;11.50;8.87;;;6.00;86.80;;;;;;5087481;28;20935;-71
2023/10/23 05:10:08;;;;;;;14.65;9.38;;;6.00;86.90;;;;;;5088679;28;20485;-71
2023/10/23 05:12:35;;;;;;;12.02;9.10;;;6.00;86.90;;;;;;5083608;28;20434;-71
2023/10/23 05:15:01;;;;;;;13.55;9.40;;;6.00;86.90;;;;;;5081671;28;20426;-71
2023/10/23 05:17:27;;;;;;;12.60;9.47;;;6.00;87.40;;;;;;5087897;28;20454;-71
2023/10/23 05:19:52;;;;;;;16.80;10.63;;;6.00;86.60;;;;;;5088609;28;20402;-71
2023/10/23 05:22:18;;;;;;;11.98;9.25;;;5.90;86.90;;;;;;5088261;28;20401;-71
2023/10/23 05:24:45;;;;;;;12.53;9.00;;;5.90;87.10;;;;;;5087143;28;20421;-71
2023/10/23 05:27:11;;;;;;;12.57;9.93;;;5.90;87.20;;;;;;5088602;28;20729;-71
2023/10/23 05:29:37;;;;;;;14.35;9.95;;;5.90;87.20;;;;;;5088215;28;20398;-71
2023/10/23 05:32:03;;;;;;;14.03;10.20;;;5.90;87.20;;;;;;5088283;28;20480;-71
2023/10/23 05:34:29;;;;;;;14.93;10.52;;;5.90;87.30;;;;;;5088092;28;20439;-71
2023/10/23 05:36:54;;;;;;;15.25;10.68;;;5.90;87.70;;;;;;5086849;28;20406;-71
2023/10/23 05:39:20;;;;;;;12.60;9.83;;;5.90;87.90;;;;;;5088179;28;20486;-71
2023/10/23 05:41:45;;;;;;;15.43;9.43;;;5.90;87.80;;;;;;5088052;28;20410;-71
2023/10/23 05:44:11;;;;;;;13.85;10.13;;;5.90;87.70;;;;;;5088285;28;20414;-71
2023/10/23 05:46:37;;;;;;;11.80;9.73;;;5.90;87.40;;;;;;5088146;28;20398;-71
2023/10/23 05:49:02;;;;;;;12.27;9.40;;;5.90;87.40;;;;;;5088123;28;20908;-68
2023/10/23 05:51:28;;;;;;;14.50;10.33;;;5.80;87.30;;;;;;5087588;28;20488;-68
2023/10/23 05:53:56;;;;;;;14.17;10.20;;;5.80;87.30;;;;;;5086979;28;20422;-70
2023/10/23 05:56:22;;;;;;;12.30;9.55;;;5.80;87.50;;;;;;5091576;28;20430;-70
2023/10/23 05:58:48;;;;;;;13.77;9.52;;;5.80;87.60;;;;;;5069824;28;20497;-71
2023/10/23 06:01:14;;;;;;;14.95;10.60;;;5.80;87.80;;;;;;5082109;28;20422;-71
2023/10/23 06:03:40;;;;;;;12.85;10.10;;;5.80;88.10;;;;;;5080725;28;20394;-71
2023/10/23 06:06:06;;;;;;;13.75;10.55;;;5.80;88.20;;;;;;5087977;28;20406;-71
2023/10/23 06:08:31;;;;;;;15.85;10.38;;;5.80;88.30;;;;;;5086681;28;20486;-71
2023/10/23 06:10:57;;;;;;;13.97;10.07;;;5.80;88.70;;;;;;5087017;28;20398;-71
2023/10/23 06:13:23;;;;;;;13.50;10.27;;;5.80;88.40;;;;;;5086923;28;20418;-71
2023/10/23 06:15:48;;;;;;;11.88;9.85;;;5.80;88.50;;;;;;5119992;28;20793;-70
2023/10/23 06:18:14;;;;;;;12.83;10.00;;;5.80;88.50;;;;;;5086447;28;20492;-71
2023/10/23 06:20:40;;;;;;;12.33;8.90;;;5.80;88.40;;;;;;5087176;28;20417;-71
2023/10/23 06:23:05;;;;;;;12.82;9.52;;;5.80;88.40;;;;;;5086262;28;20449;-71
2023/10/23 06:25:31;;;;;;;11.87;9.10;;;5.80;88.40;;;;;;5086163;28;20432;-71
2023/10/23 06:27:57;;;;;;;11.07;8.95;;;5.70;88.40;;;;;;5088624;28;20408;-71
2023/10/23 06:30:24;;;;;;;13.48;10.20;;;5.80;88.60;;;;;;5090890;28;20417;-71
2023/10/23 06:32:49;;;;;;;14.20;10.30;;;5.80;88.80;;;;;;5098062;28;20413;-71
2023/10/23 06:35:16;;;;;;;12.40;9.90;;;5.80;88.90;;;;;;5091341;28;20424;-70
2023/10/23 06:37:41;;;;;;;11.33;9.13;;;5.80;89.00;;;;;;5086193;28;20446;-71
2023/10/23 06:40:07;;;;;;;12.07;9.43;;;5.80;89.10;;;;;;5087069;28;20437;-71
2023/10/23 06:42:34;;;;;;;10.82;9.13;;;5.70;89.10;;;;;;5087288;28;20414;-72
2023/10/23 06:45:00;;;;;;;14.43;10.85;;;5.80;89.40;;;;;;5087741;28;20819;-72
2023/10/23 06:47:26;;;;;;;15.37;11.70;;;5.80;89.40;;;;;;5086739;28;20437;-72
2023/10/23 06:49:51;;;;;;;19.70;12.50;;;5.80;89.90;;;;;;5085423;28;20471;-72
2023/10/23 06:52:17;;;;;;;20.43;12.73;;;5.80;90.10;;;;;;5086200;28;21033;-72
2023/10/23 06:54:43;;;;;;;19.17;12.95;;;5.90;90.30;;;;;;5087314;28;20426;-72
2023/10/23 06:57:08;;;;;;;18.83;13.37;;;6.00;90.50;;;;;;5084747;28;20427;-72
2023/10/23 06:59:35;;;;;;;22.65;14.13;;;6.00;90.60;;;;;;5080448;28;20455;-72
2023/10/23 07:02:01;;;;;;;21.43;14.47;;;6.00;90.60;;;;;;5085483;28;20401;-72
2023/10/23 07:04:27;;;;;;;21.03;13.77;;;6.10;90.70;;;;;;5077730;28;20421;-72
2023/10/23 07:06:53;;;;;;;24.63;14.93;;;6.10;90.80;;;;;;5074271;28;20910;-72
2023/10/23 07:09:19;;;;;;;26.23;15.18;;;6.10;90.90;;;;;;5088842;28;22057;-72
2023/10/23 07:11:48;;;;;;;23.02;14.57;;;6.20;91.10;;;;;;5091258;28;20406;-72
2023/10/23 07:14:14;;;;;;;22.20;14.63;;;6.20;91.20;;;;;;5089665;28;20413;-72
2023/10/23 07:16:40;;;;;;;23.42;15.93;;;6.30;91.30;;;;;;5080933;28;20408;-72
2023/10/23 07:19:06;;;;;;;21.30;13.75;;;6.30;91.40;;;;;;5091132;28;21672;-72
2023/10/23 07:21:32;;;;;;;21.80;14.30;;;6.30;91.30;;;;;;5090687;28;20783;-72
2023/10/23 07:23:58;;;;;;;21.73;15.07;;;6.30;91.40;;;;;;5090554;28;20414;-72
2023/10/23 07:26:23;;;;;;;23.23;15.13;;;6.30;91.50;;;;;;5090937;28;20402;-72
2023/10/23 07:28:51;;;;;;;23.40;14.88;;;6.40;91.70;;;;;;5088937;28;20450;-72
2023/10/23 07:31:17;;;;;;;25.75;16.58;;;6.40;91.80;;;;;;5090904;28;20472;-72
2023/10/23 07:33:43;;;;;;;28.45;16.52;;;6.50;91.90;;;;;;5090082;28;20501;-72
2023/10/23 07:36:12;;;;;;;31.30;17.60;;;6.50;92.10;;;;;;5090722;28;20517;-72
2023/10/23 07:38:42;;;;;;;30.50;17.65;;;6.60;92.20;;;;;;5089429;28;20422;-72
2023/10/23 07:41:13;;;;;;;24.87;16.60;;;6.60;92.20;;;;;;5088984;28;20414;-72
2023/10/23 07:43:39;;;;;;;22.88;16.08;;;6.60;92.20;;;;;;5089455;28;21133;-72
2023/10/23 07:46:06;;;;;;;23.50;16.48;;;6.70;92.30;;;;;;5090141;28;20406;-72
2023/10/23 07:48:32;;;;;;;23.50;16.65;;;6.80;92.40;;;;;;5109966;27;20574;-72
2023/10/23 07:50:59;;;;;;;24.73;16.75;;;6.80;92.50;;;;;;5090207;28;20868;-72
2023/10/23 07:53:26;;;;;;;23.30;16.60;;;6.80;92.50;;;;;;5089619;28;20406;-72
2023/10/23 07:55:51;;;;;;;22.00;15.95;;;6.90;92.70;;;;;;5083130;28;20523;-72
2023/10/23 07:58:17;;;;;;;22.67;16.53;;;6.90;92.80;;;;;;5089826;28;20951;-72
2023/10/23 08:00:43;;;;;;;23.52;16.90;;;7.00;92.80;;;;;;5090437;28;20394;-72
2023/10/23 08:03:09;;;;;;;23.40;16.17;;;7.00;92.90;;;;;;5089529;28;20402;-72
2023/10/23 08:05:36;;;;;;;22.95;17.20;;;7.10;93.00;;;;;;5088629;28;21158;-72
2023/10/23 08:08:01;;;;;;;25.25;17.63;;;7.10;93.10;;;;;;5090167;28;20413;-72
2023/10/23 08:10:27;;;;;;;23.60;17.58;;;7.20;93.20;;;;;;5088482;28;20410;-72
2023/10/23 08:12:53;;;;;;;24.92;17.17;;;7.20;93.40;;;;;;5090023;28;20438;-72
2023/10/23 08:15:18;;;;;;;23.93;17.00;;;7.30;93.50;;;;;;5088941;28;20796;-72
2023/10/23 08:17:44;;;;;;;23.40;17.42;;;7.40;93.50;;;;;;5089304;28;20420;-72
2023/10/23 08:20:10;;;;;;;23.90;17.00;;;7.40;93.60;;;;;;5088466;28;20413;-72
2023/10/23 08:22:36;;;;;;;25.60;17.50;;;7.40;94.00;;;;;;5089867;28;20433;-72
2023/10/23 08:25:02;;;;;;;24.08;17.20;;;7.50;93.80;;;;;;5089530;28;20413;-72
2023/10/23 08:27:28;;;;;;;25.83;17.73;;;7.50;93.90;;;;;;5089374;28;20406;-73
2023/10/23 08:29:53;;;;;;;25.37;17.17;;;7.60;93.90;;;;;;5076937;28;20402;-73
2023/10/23 08:32:19;;;;;;;24.35;17.58;;;7.60;94.00;;;;;;5089710;28;20916;-72
2023/10/23 08:34:45;;;;;;;24.57;17.53;;;7.70;94.10;;;;;;5088881;28;20505;-72
2023/10/23 08:37:10;;;;;;;23.88;17.52;;;7.80;94.30;;;;;;5080269;28;20421;-72
2023/10/23 08:39:37;;;;;;;22.77;16.48;;;7.80;94.40;;;;;;5089154;28;20431;-73
2023/10/23 08:42:03;;;;;;;22.20;16.73;;;7.90;94.60;;;;;;5089155;28;20908;-72
2023/10/23 08:44:29;;;;;;;23.80;17.00;;;8.00;94.70;;;;;;5088985;28;20806;-72
2023/10/23 08:46:55;;;;;;;23.15;16.20;;;8.10;94.70;;;;;;5089542;28;20394;-71
2023/10/23 08:49:21;;;;;;;25.10;16.50;;;8.20;94.70;;;;;;5088723;28;20485;-72
2023/10/23 08:51:52;;;;;;;20.15;15.50;;;8.20;94.80;;;;;;5089225;28;20426;-72
2023/10/23 08:54:19;;;;;;;21.13;16.43;;;8.40;95.50;;;;;;5085327;28;20407;-72
2023/10/23 08:56:57;;;;;;;20.55;15.23;;;8.90;99.90;;;;;;5116619;27;20424;-73
2023/10/23 08:59:22;;;;;;;15.35;12.40;;;10.10;99.90;;;;;;5085754;28;20467;-73
2023/10/23 09:01:48;;;;;;;12.00;10.73;;;11.30;99.90;;;;;;5087556;28;20406;-73
2023/10/23 09:04:14;;;;;;;9.50;8.20;;;12.50;99.90;;;;;;5075523;28;21001;-73
2023/10/23 09:06:40;;;;;;;8.80;7.07;;;13.50;99.90;;;;;;5088590;28;20401;-73
2023/10/23 09:09:06;;;;;;;7.30;6.43;;;14.40;95.70;;;;;;5088489;28;20414;-73
2023/10/23 09:11:44;;;;;;;7.18;5.45;;;15.30;86.80;;;;;;5087931;28;20398;-73
2023/10/23 09:14:21;;;;;;;6.53;5.28;;;16.10;66.00;;;;;;5089500;28;20413;-74
2023/10/23 09:16:47;;;;;;;6.30;4.97;;;16.70;50.50;;;;;;5084429;28;20413;-74
2023/10/23 09:19:34;;;;;;;7.40;5.05;;;17.40;42.60;;;;;;5088596;28;20482;-74
2023/10/23 09:22:00;;;;;;;6.85;4.97;;;18.00;29.50;;;;;;5073184;28;20944;-74
2023/10/23 09:24:26;;;;;;;6.10;4.40;;;18.70;23.70;;;;;;5073187;28;20495;-74
2023/10/23 09:26:52;;;;;;;6.40;4.70;;;19.30;11.80;;;;;;5093329;28;20961;-73
2023/10/23 09:29:25;;;;;;;6.28;4.57;;;19.70;6.40;;;;;;5089896;28;20459;-74
2023/10/23 09:31:54;;;;;;;5.40;3.97;;;20.10;1.00;;;;;;5087216;28;20418;-74
2023/10/23 09:34:21;;;;;;;6.10;3.83;;;20.40;1.00;;;;;;5080491;28;20438;-74
2023/10/23 09:36:50;;;;;;;5.57;4.17;;;20.70;1.00;;;;;;5087496;28;20818;-74
2023/10/23 09:39:16;;;;;;;5.55;4.00;;;20.90;1.00;;;;;;5088486;28;20513;-74
2023/10/23 09:41:42;;;;;;;7.23;4.40;;;20.90;1.00;;;;;;5094203;28;20960;-74
2023/10/23 09:44:09;;;;;;;5.03;4.00;;;21.20;1.00;;;;;;5088575;28;20402;-74
2023/10/23 09:46:36;;;;;;;6.78;3.90;;;21.40;1.00;;;;;;5085804;28;20421;-74
2023/10/23 09:49:04;;;;;;;7.32;3.90;;;21.50;1.00;;;;;;5078952;28;20983;-74
2023/10/23 09:51:38;;;;;;;4.72;3.67;;;21.70;1.00;;;;;;5087748;28;20425;-74
2023/10/23 09:54:15;;;;;;;5.03;3.33;;;22.00;1.00;;;;;;5087775;28;20421;-74
2023/10/23 09:56:52;;;;;;;5.88;3.35;;;22.10;1.00;;;;;;5088767;28;20508;-74
2023/10/23 09:59:25;;;;;;;5.88;3.45;;;22.20;1.00;;;;;;5086003;28;21374;-74
2023/10/23 10:01:50;;;;;;;5.55;3.20;;;22.30;1.00;;;;;;5085562;28;20950;-74
2023/10/23 10:04:32;;;;;;;5.40;3.70;;;22.60;1.00;;;;;;5087110;28;20406;-74
2023/10/23 10:07:06;;;;;;;5.35;3.40;;;22.70;1.00;;;;;;5095367;28;20424;-74
2023/10/23 10:09:32;;;;;;;4.30;2.88;;;22.80;1.00;;;;;;5085097;28;20425;-74
2023/10/23 10:11:59;;;;;;;4.38;3.20;;;22.90;1.00;;;;;;5087488;28;20409;-74
2023/10/23 10:14:27;;;;;;;4.22;3.10;;;23.00;1.00;;;;;;5087383;28;20409;-74
2023/10/23 10:16:57;;;;;;;4.85;3.13;;;23.10;1.00;;;;;;5087535;28;20939;-74
2023/10/23 10:19:26;;;;;;;5.10;2.97;;;23.00;1.00;;;;;;5087914;28;20409;-74
2023/10/23 10:22:04;;;;;;;5.15;2.83;;;23.10;1.00;;;;;;5086974;28;20417;-74
2023/10/23 10:24:33;;;;;;;4.65;2.70;;;23.30;1.00;;;;;;5086729;28;20414;-74
2023/10/23 10:27:00;;;;;;;5.05;2.72;;;23.60;1.00;;;;;;5086738;28;20794;-74
2023/10/23 10:29:26;;;;;;;5.82;2.80;;;23.70;1.00;;;;;;5087897;28;20415;-74
2023/10/23 10:32:06;;;;;;;4.40;2.05;;;23.80;1.00;;;;;;5086658;28;20416;-74
2023/10/23 10:34:40;;;;;;;4.47;2.20;;;24.00;99.90;;;;;;5087733;28;20409;-74
2023/10/23 10:37:07;;;;;;;4.07;2.10;;;24.10;99.90;;;;;;5075225;28;20424;-75
2023/10/23 10:39:59;;;;;;;6.38;1.70;;;24.20;99.90;;;;;;5087517;28;20814;-74
2023/10/23 10:42:26;;;;;;;4.57;1.80;;;24.20;99.90;;;;;;5077085;28;20472;-74
2023/10/23 10:44:52;;;;;;;3.95;1.77;;;24.40;99.90;;;;;;5089409;28;20422;-74
2023/10/23 10:47:19;;;;;;;5.47;1.90;;;24.60;99.90;;;;;;5091602;28;20473;-74
2023/10/23 10:49:45;;;;;;;3.70;1.50;;;24.70;99.90;;;;;;5091060;28;20397;-74
2023/10/23 10:52:27;;;;;;;3.58;1.73;;;24.70;99.90;;;;;;5091189;28;20458;-74
2023/10/23 10:54:59;;;;;;;3.50;1.60;;;24.90;99.90;;;;;;5090500;28;20517;-74
2023/10/23 10:57:26;;;;;;;2.60;1.42;;;25.10;99.90;;;;;;5090221;28;20476;-75
2023/10/23 10:59:58;;;;;;;3.03;1.47;;;25.20;99.90;;;;;;5091466;28;20760;-74
2023/10/23 11:02:24;;;;;;;3.08;1.52;;;25.10;99.90;;;;;;5089302;28;20479;-74
2023/10/23 11:04:50;;;;;;;3.55;1.35;;;25.10;99.90;;;;;;5089435;28;20502;-74
2023/10/23 11:07:23;;;;;;;3.38;1.30;;;25.10;99.90;;;;;;5090413;28;20732;-75
2023/10/23 11:09:50;;;;;;;4.37;1.47;;;25.00;99.90;;;;;;5077326;28;20435;-74
2023/10/23 11:12:20;;;;;;;4.00;1.38;;;24.80;99.90;;;;;;5102419;27;20441;-74
2023/10/23 11:14:48;;;;;;;3.72;1.40;;;24.70;99.90;;;;;;5090855;28;20868;-74
2023/10/23 11:17:14;;;;;;;1.88;1.10;;;24.60;99.90;;;;;;5084131;28;20915;-74
2023/10/23 11:19:42;;;;;;;3.72;1.40;;;24.30;99.90;;;;;;5088676;28;20402;-74
2023/10/23 11:22:13;;;;;;;2.30;1.10;;;24.10;99.90;;;;;;5084600;28;20413;-74
2023/10/23 11:24:40;;;;;;;3.45;1.35;;;23.80;99.90;;;;;;5089279;28;20414;-74
2023/10/23 11:27:07;;;;;;;3.20;1.37;;;23.70;99.90;;;;;;5088075;28;20416;-74
2023/10/23 11:29:47;;;;;;;2.53;1.30;;;23.50;99.90;;;;;;5089562;28;20431;-74
2023/10/23 11:32:14;;;;;;;3.15;1.35;;;23.30;99.90;;;;;;5067131;28;20472;-74
2023/10/23 11:34:40;;;;;;;4.80;1.48;;;23.10;99.90;;;;;;5088214;28;20920;-74
2023/10/23 11:37:07;;;;;;;2.35;1.17;;;22.80;99.90;;;;;;5087948;28;20404;-73
2023/10/23 11:39:36;;;;;;;3.55;1.60;;;22.50;99.90;;;;;;5084666;28;20406;-74
2023/10/23 11:42:02;;;;;;;3.45;2.10;;;22.50;99.90;;;;;;5089459;28;20911;-73
2023/10/23 11:44:30;;;;;;;4.95;1.92;;;22.40;99.90;;;;;;5090590;28;20943;-74
2023/10/23 11:47:00;;;;;;;4.03;2.03;;;22.40;99.90;;;;;;5079614;28;20400;-74
2023/10/23 11:49:25;;;;;;;4.13;2.15;;;22.50;99.90;;;;;;5088483;28;20764;-74
2023/10/23 11:51:52;;;;;;;4.87;1.70;;;22.60;99.90;;;;;;5087879;28;20418;-74
2023/10/23 11:54:19;;;;;;;3.97;1.70;;;22.60;99.90;;;;;;5089373;28;20409;-74
2023/10/23 11:56:45;;;;;;;3.67;1.43;;;22.60;99.90;;;;;;5087505;28;20475;-74
2023/10/23 11:59:19;;;;;;;5.57;1.40;;;22.70;99.90;;;;;;5071067;28;20429;-74
2023/10/23 12:01:45;;;;;;;3.13;1.40;;;22.90;99.90;;;;;;5084494;28;21005;-74
2023/10/23 12:04:11;;;;;;;2.67;1.35;;;22.90;99.90;;;;;;5086237;28;20482;-74
2023/10/23 12:06:38;;;;;;;2.27;0.90;;;22.70;99.90;;;;;;5089751;28;20898;-74
2023/10/23 12:09:05;;;;;;;2.03;0.85;;;22.60;99.90;;;;;;5089579;28;20438;-74
2023/10/23 12:11:31;;;;;;;3.10;0.98;;;22.30;99.90;;;;;;5087190;28;20559;-74
2023/10/23 12:13:59;;;;;;;4.33;1.20;;;21.80;99.90;;;;;;5075203;28;20418;-74
2023/10/23 12:16:25;;;;;;;3.03;1.10;;;21.40;99.90;;;;;;5078804;28;20430;-73
2023/10/23 12:18:51;;;;;;;3.30;1.40;;;20.90;99.90;;;;;;5088056;28;20799;-74
2023/10/23 12:21:16;;;;;;;3.20;1.20;;;20.40;99.90;;;;;;5088841;28;20406;-74
2023/10/23 12:23:42;;;;;;;3.60;1.65;;;20.00;99.90;;;;;;5089292;28;20459;-74
2023/10/23 12:26:07;;;;;;;3.63;1.40;;;19.70;99.90;;;;;;5089640;28;20493;-74
2023/10/23 12:28:34;;;;;;;4.43;2.07;;;19.30;99.90;;;;;;5088597;28;20405;-74
2023/10/23 12:31:00;;;;;;;4.72;2.10;;;19.00;99.90;;;;;;5087436;28;20426;-74
2023/10/23 12:33:25;;;;;;;4.37;1.97;;;18.80;1.00;;;;;;5088651;28;20418;-74
2023/10/23 12:35:51;;;;;;;3.90;1.60;;;18.60;1.00;;;;;;5089451;28;20472;-74
2023/10/23 12:38:16;;;;;;;2.90;1.40;;;18.40;1.00;;;;;;5088634;28;20427;-73
2023/10/23 12:40:43;;;;;;;3.57;1.67;;;18.20;1.00;;;;;;5089242;28;21057;-74
2023/10/23 12:43:10;;;;;;;2.90;1.50;;;18.10;1.00;;;;;;5086471;28;20459;-73
2023/10/23 12:45:35;;;;;;;3.78;1.85;;;18.00;1.00;;;;;;5073174;28;21122;-73